Time;durP1;ratioP1;P1;durP2;ratioP2;P2;SDS_P1;SDS_P2;PMS_P1;PMS_P2;Temp;Humidity;BMP_temperature;BMP_pressure;BME280_temperature;BME280_humidity;BME280_pressure;Samples;Min_cycle;Max_cycle;Signal;HPM_P1;HPM_P2
2023/03/01 00:00:21;;;;;;;53.53;36.67;;;;;;;;;;5114920;28;20286;-78
2023/03/01 00:02:48;;;;;;;41.57;27.67;;;;;;;;;;5115283;27;20260;-77
2023/03/01 00:05:15;;;;;;;41.97;28.60;;;;;;;;;;5114169;28;20225;-78
2023/03/01 00:07:44;;;;;;;41.90;28.00;;;;;;;;;;5114276;28;20598;-76
2023/03/01 00:10:12;;;;;;;51.43;35.57;;;;;;;;;;5114673;28;20295;-77
2023/03/01 00:12:39;;;;;;;51.30;35.30;;;;;;;;;;5114708;28;20769;-77
2023/03/01 00:15:07;;;;;;;39.37;26.97;;;;;;;;;;5114303;28;20191;-77
2023/03/01 00:17:34;;;;;;;41.17;27.87;;;;;;;;;;5114604;28;20289;-77
2023/03/01 00:20:01;;;;;;;48.93;31.87;;;;;;;;;;5114080;28;20742;-77
2023/03/01 00:22:29;;;;;;;39.40;26.30;;;;;;;;;;5114500;28;20754;-78
2023/03/01 00:24:57;;;;;;;39.37;26.60;;;;;;;;;;5113914;28;20309;-77
2023/03/01 00:27:24;;;;;;;50.60;35.00;;;;;;;;;;5114044;28;20280;-78
2023/03/01 00:29:52;;;;;;;36.67;25.23;;;;;;;;;;5113820;28;20284;-79
2023/03/01 00:32:19;;;;;;;42.03;29.00;;;;;;;;;;5113807;28;20300;-77
2023/03/01 00:34:54;;;;;;;48.23;33.37;;;;;;;;;;5114060;28;20837;-78
2023/03/01 00:37:21;;;;;;;41.83;27.17;;;;;;;;;;5114695;28;20228;-77
2023/03/01 00:39:48;;;;;;;81.13;49.57;;;;;;;;;;5114029;28;20220;-77
2023/03/01 00:42:17;;;;;;;58.93;38.10;;;;;;;;;;5113986;28;20284;-78
2023/03/01 00:44:44;;;;;;;62.73;41.00;;;;;;;;;;5113366;28;20773;-77
2023/03/01 00:47:11;;;;;;;96.10;59.43;;;;;;;;;;5113814;28;20281;-76
2023/03/01 00:49:38;;;;;;;43.57;28.87;;;;;;;;;;5113976;28;20290;-77
2023/03/01 00:52:06;;;;;;;36.40;26.27;;;;;;;;;;5113629;28;20626;-77
2023/03/01 00:54:33;;;;;;;36.60;25.73;;;;;;;;;;5113609;28;20738;-77
2023/03/01 00:57:00;;;;;;;36.73;25.60;;;;;;;;;;5113858;28;20281;-76
2023/03/01 00:59:29;;;;;;;36.30;23.67;;;;;;;;;;5113424;28;20286;-77
2023/03/01 01:01:56;;;;;;;34.67;23.40;;;;;;;;;;5113427;28;20259;-77
2023/03/01 01:04:23;;;;;;;34.90;23.13;;;;;;;;;;5113330;28;20620;-77
2023/03/01 01:06:50;;;;;;;31.70;22.40;;;;;;;;;;5113510;28;20306;-77
2023/03/01 01:09:18;;;;;;;33.73;23.07;;;;;;;;;;5113304;28;20277;-77
2023/03/01 01:11:46;;;;;;;31.23;21.57;;;;;;;;;;5113286;28;20196;-78
2023/03/01 01:14:13;;;;;;;32.70;21.73;;;;;;;;;;5113247;28;20314;-77
2023/03/01 01:16:42;;;;;;;30.87;21.00;;;;;;;;;;5113493;28;20221;-77
2023/03/01 01:19:09;;;;;;;33.27;21.50;;;;;;;;;;5113411;28;20288;-76
2023/03/01 01:21:37;;;;;;;31.30;20.67;;;;;;;;;;5113129;28;20229;-78
2023/03/01 01:24:04;;;;;;;30.03;20.87;;;;;;;;;;5113116;28;20208;-78
2023/03/01 01:26:32;;;;;;;27.83;20.57;;;;;;;;;;5112999;28;20195;-77
2023/03/01 01:29:00;;;;;;;28.90;20.60;;;;;;;;;;5112922;28;20236;-76
2023/03/01 01:31:28;;;;;;;31.03;20.90;;;;;;;;;;5112863;28;20285;-76
2023/03/01 01:33:57;;;;;;;28.10;20.90;;;;;;;;;;5112739;28;20317;-78
2023/03/01 01:36:24;;;;;;;28.67;19.43;;;;;;;;;;5112280;28;20225;-77
2023/03/01 01:38:52;;;;;;;25.97;18.67;;;;;;;;;;5113072;28;20300;-77
2023/03/01 01:41:19;;;;;;;28.33;19.87;;;;;;;;;;5112831;28;20281;-77
2023/03/01 01:43:47;;;;;;;25.73;18.57;;;;;;;;;;5112521;28;20285;-76
2023/03/01 01:46:17;;;;;;;23.77;18.57;;;;;;;;;;5112210;28;20256;-77
2023/03/01 01:48:46;;;;;;;26.17;18.73;;;;;;;;;;5112738;28;20220;-76
2023/03/01 01:51:18;;;;;;;27.33;18.93;;;;;;;;;;5112036;28;20621;-77
2023/03/01 01:53:46;;;;;;;25.90;18.10;;;;;;;;;;5112237;28;20261;-77
2023/03/01 01:56:15;;;;;;;25.67;17.57;;;;;;;;;;5112076;28;20277;-77
2023/03/01 01:58:43;;;;;;;24.40;17.70;;;;;;;;;;5112197;28;20231;-76
2023/03/01 02:01:10;;;;;;;25.43;17.33;;;;;;;;;;5112543;28;20289;-77
2023/03/01 02:03:41;;;;;;;23.60;17.47;;;;;;;;;;5112889;28;20304;-77
2023/03/01 02:06:13;;;;;;;25.93;17.43;;;;;;;;;;5111651;28;20194;-77
2023/03/01 02:08:43;;;;;;;22.00;16.73;;;;;;;;;;5112195;28;20251;-78
2023/03/01 02:11:11;;;;;;;22.90;17.27;;;;;;;;;;5112535;28;20626;-77
2023/03/01 02:13:38;;;;;;;25.10;17.50;;;;;;;;;;5112086;28;20310;-77
2023/03/01 02:16:06;;;;;;;21.53;16.00;;;;;;;;;;5112149;28;20286;-77
2023/03/01 02:18:33;;;;;;;23.03;16.73;;;;;;;;;;5112009;28;20229;-76
2023/03/01 02:21:07;;;;;;;23.23;17.00;;;;;;;;;;5111695;28;20291;-77
2023/03/01 02:23:34;;;;;;;22.50;16.67;;;;;;;;;;5112346;28;20229;-77
2023/03/01 02:26:07;;;;;;;23.83;17.27;;;;;;;;;;5111787;28;20258;-76
2023/03/01 02:28:36;;;;;;;23.20;17.47;;;;;;;;;;5111793;28;20739;-76
2023/03/01 02:33:49;;;;;;;24.40;16.63;;;;;;;;;;5111896;28;20744;-78
2023/03/01 02:36:18;;;;;;;25.07;16.67;;;;;;;;;;5111773;28;20278;-77
2023/03/01 02:38:45;;;;;;;23.03;16.60;;;;;;;;;;5111950;28;20631;-77
2023/03/01 02:41:14;;;;;;;21.97;16.63;;;;;;;;;;5111973;28;20243;-77
2023/03/01 02:43:43;;;;;;;22.50;17.20;;;;;;;;;;5112427;28;20723;-78
2023/03/01 02:46:15;;;;;;;22.13;16.50;;;;;;;;;;5111645;28;20249;-78
2023/03/01 02:48:43;;;;;;;24.67;16.77;;;;;;;;;;5111364;28;20355;-76
2023/03/01 02:51:14;;;;;;;21.77;16.00;;;;;;;;;;5111758;28;20337;-76
2023/03/01 02:53:43;;;;;;;22.77;16.57;;;;;;;;;;5111837;28;20800;-77
2023/03/01 02:56:12;;;;;;;23.93;16.47;;;;;;;;;;5105944;28;20229;-77
2023/03/01 02:58:45;;;;;;;21.97;16.10;;;;;;;;;;5100179;28;20285;-77
2023/03/01 03:01:15;;;;;;;25.10;16.70;;;;;;;;;;5091265;28;20206;-75
2023/03/01 03:03:43;;;;;;;23.40;16.23;;;;;;;;;;5100171;28;20284;-77
2023/03/01 03:06:10;;;;;;;21.77;16.70;;;;;;;;;;5111521;28;20277;-77
2023/03/01 03:08:37;;;;;;;25.20;16.40;;;;;;;;;;5111837;28;20225;-76
2023/03/01 03:11:05;;;;;;;22.00;15.73;;;;;;;;;;5111018;28;20221;-77
2023/03/01 03:13:32;;;;;;;22.87;15.77;;;;;;;;;;5111334;28;20761;-77
2023/03/01 03:15:59;;;;;;;20.80;15.67;;;;;;;;;;5111262;28;20669;-77
2023/03/01 03:18:27;;;;;;;20.73;15.87;;;;;;;;;;5110826;28;20289;-77
2023/03/01 03:20:55;;;;;;;21.30;15.60;;;;;;;;;;5111417;28;20225;-77
2023/03/01 03:23:23;;;;;;;21.63;15.60;;;;;;;;;;5114585;28;20642;-77
2023/03/01 03:25:50;;;;;;;20.53;15.07;;;;;;;;;;5115082;28;20674;-77
2023/03/01 03:28:18;;;;;;;22.10;15.60;;;;;;;;;;5115505;28;20214;-77
2023/03/01 03:30:46;;;;;;;22.07;15.53;;;;;;;;;;5115403;28;20232;-78
2023/03/01 03:33:14;;;;;;;20.93;15.63;;;;;;;;;;5114579;28;20297;-77
2023/03/01 03:35:44;;;;;;;21.90;16.33;;;;;;;;;;5115480;28;20200;-77
2023/03/01 03:38:16;;;;;;;22.07;15.33;;;;;;;;;;5115319;28;20198;-77
2023/03/01 03:40:44;;;;;;;20.20;14.87;;;;;;;;;;5115504;28;20568;-77
2023/03/01 03:43:12;;;;;;;22.03;15.90;;;;;;;;;;5114636;27;20285;-76
2023/03/01 03:45:39;;;;;;;20.87;14.83;;;;;;;;;;5115110;28;20329;-77
2023/03/01 03:48:07;;;;;;;20.90;15.27;;;;;;;;;;5114729;28;20289;-77
2023/03/01 03:50:34;;;;;;;20.67;15.23;;;;;;;;;;5115107;28;20273;-77
2023/03/01 03:53:04;;;;;;;21.70;15.83;;;;;;;;;;5115108;28;20284;-77
2023/03/01 03:55:33;;;;;;;22.43;15.60;;;;;;;;;;5114879;28;20312;-76
2023/03/01 03:58:06;;;;;;;21.90;14.97;;;;;;;;;;5114704;28;20194;-77
2023/03/01 04:00:34;;;;;;;20.13;14.63;;;;;;;;;;5114787;28;20254;-77
2023/03/01 04:03:01;;;;;;;20.33;15.10;;;;;;;;;;5114655;28;20193;-76
2023/03/01 04:05:29;;;;;;;22.10;15.30;;;;;;;;;;5114555;28;20233;-76
2023/03/01 04:08:06;;;;;;;22.83;15.87;;;;;;;;;;5114718;28;20201;-77
2023/03/01 04:10:36;;;;;;;21.73;15.87;;;;;;;;;;5114376;28;20255;-78
2023/03/01 04:13:04;;;;;;;22.07;15.10;;;;;;;;;;5114576;27;20198;-76
2023/03/01 04:15:32;;;;;;;22.57;15.77;;;;;;;;;;5114227;28;20312;-77
2023/03/01 04:17:59;;;;;;;20.93;15.27;;;;;;;;;;5114061;28;20190;-77
2023/03/01 04:20:28;;;;;;;22.70;15.20;;;;;;;;;;5114831;28;20194;-77
2023/03/01 04:22:59;;;;;;;20.80;15.67;;;;;;;;;;5114530;28;20233;-77
2023/03/01 04:25:26;;;;;;;19.87;14.77;;;;;;;;;;5114014;28;20281;-77
2023/03/01 04:27:55;;;;;;;23.50;15.43;;;;;;;;;;5114260;28;20285;-78
2023/03/01 04:30:25;;;;;;;21.67;15.23;;;;;;;;;;5114355;28;20236;-76
2023/03/01 04:32:52;;;;;;;22.00;15.20;;;;;;;;;;5114320;28;20541;-77
2023/03/01 04:35:20;;;;;;;20.33;14.67;;;;;;;;;;5113469;28;20257;-77
2023/03/01 04:37:47;;;;;;;23.50;15.07;;;;;;;;;;5114077;28;20562;-77
2023/03/01 04:40:16;;;;;;;20.40;14.67;;;;;;;;;;5113825;28;20244;-76
2023/03/01 04:42:43;;;;;;;21.87;15.73;;;;;;;;;;5114430;28;20297;-77
2023/03/01 04:45:13;;;;;;;21.37;15.33;;;;;;;;;;5113313;28;20229;-77
2023/03/01 04:47:42;;;;;;;21.83;15.03;;;;;;;;;;5113967;28;20285;-77
2023/03/01 04:50:10;;;;;;;19.43;14.73;;;;;;;;;;5113655;28;20239;-76
2023/03/01 04:52:37;;;;;;;23.80;15.27;;;;;;;;;;5113851;28;20229;-77
2023/03/01 04:55:05;;;;;;;20.03;14.70;;;;;;;;;;5113366;28;20321;-77
2023/03/01 04:57:32;;;;;;;21.60;14.47;;;;;;;;;;5113618;28;20734;-77
2023/03/01 04:59:59;;;;;;;21.13;14.80;;;;;;;;;;5113568;28;20643;-77
2023/03/01 05:02:29;;;;;;;21.47;14.70;;;;;;;;;;5113983;28;20277;-77
2023/03/01 05:04:57;;;;;;;21.77;14.63;;;;;;;;;;5113466;28;20247;-76
2023/03/01 05:07:26;;;;;;;18.90;13.87;;;;;;;;;;5113597;28;20584;-77
2023/03/01 05:09:54;;;;;;;20.23;14.47;;;;;;;;;;5113304;28;20267;-76
2023/03/01 05:12:21;;;;;;;20.07;14.50;;;;;;;;;;5113674;28;20216;-76
2023/03/01 05:14:48;;;;;;;20.50;14.17;;;;;;;;;;5113330;28;20808;-77
2023/03/01 05:17:18;;;;;;;23.27;14.50;;;;;;;;;;5113068;28;20722;-76
2023/03/01 05:19:46;;;;;;;19.90;14.20;;;;;;;;;;5113181;27;20725;-77
2023/03/01 05:22:13;;;;;;;18.70;13.77;;;;;;;;;;5113186;28;20225;-76
2023/03/01 05:24:40;;;;;;;19.03;13.37;;;;;;;;;;5113555;28;20293;-76
2023/03/01 05:27:08;;;;;;;18.30;13.40;;;;;;;;;;5113258;28;20297;-76
2023/03/01 05:29:35;;;;;;;20.93;14.43;;;;;;;;;;5112728;28;20292;-76
2023/03/01 05:32:03;;;;;;;21.67;14.57;;;;;;;;;;5113210;28;20203;-77
2023/03/01 05:34:31;;;;;;;21.97;14.60;;;;;;;;;;5113403;28;20872;-77
2023/03/01 05:37:00;;;;;;;18.83;13.90;;;;;;;;;;5113504;28;20297;-76
2023/03/01 05:39:28;;;;;;;21.07;13.80;;;;;;;;;;5112818;28;20289;-78
2023/03/01 05:41:56;;;;;;;20.93;14.50;;;;;;;;;;5113617;28;20218;-76
2023/03/01 05:44:24;;;;;;;20.33;14.50;;;;;;;;;;5112748;27;20392;-76
2023/03/01 05:46:51;;;;;;;20.13;14.33;;;;;;;;;;5112033;28;20297;-77
2023/03/01 05:49:19;;;;;;;19.87;14.10;;;;;;;;;;5112694;28;20288;-76
2023/03/01 05:51:49;;;;;;;20.83;14.37;;;;;;;;;;5112632;28;20618;-78
2023/03/01 05:54:18;;;;;;;63.70;31.10;;;;;;;;;;5112363;28;20774;-77
2023/03/01 05:56:45;;;;;;;35.97;20.93;;;;;;;;;;5112676;28;20293;-77
2023/03/01 05:59:13;;;;;;;52.43;30.20;;;;;;;;;;5112633;28;20598;-76
2023/03/01 06:01:40;;;;;;;37.17;24.07;;;;;;;;;;5112852;28;20247;-76
2023/03/01 06:04:08;;;;;;;63.10;37.47;;;;;;;;;;5112515;28;20226;-77
2023/03/01 06:06:37;;;;;;;49.70;29.97;;;;;;;;;;5112206;28;20289;-76
2023/03/01 06:09:04;;;;;;;46.13;30.63;;;;;;;;;;5112695;28;20216;-77
2023/03/01 06:11:32;;;;;;;23.47;14.90;;;;;;;;;;5112298;28;20221;-76
2023/03/01 06:14:00;;;;;;;23.87;15.47;;;;;;;;;;5112028;28;20289;-77
2023/03/01 06:16:27;;;;;;;68.20;35.83;;;;;;;;;;5111957;28;20292;-78
2023/03/01 06:18:54;;;;;;;80.93;41.97;;;;;;;;;;5112217;28;20225;-76
2023/03/01 06:21:21;;;;;;;44.87;26.17;;;;;;;;;;5111995;28;21071;-76
2023/03/01 06:23:48;;;;;;;77.57;37.57;;;;;;;;;;5112337;28;20225;-77
2023/03/01 06:26:15;;;;;;;37.90;25.30;;;;;;;;;;5112014;28;20217;-76
2023/03/01 06:28:45;;;;;;;22.77;16.50;;;;;;;;;;5111912;28;20225;-77
2023/03/01 06:31:13;;;;;;;47.03;36.00;;;;;;;;;;5111759;28;20236;-77
2023/03/01 06:33:40;;;;;;;28.20;23.13;;;;;;;;;;5111871;28;20243;-79
2023/03/01 06:36:08;;;;;;;50.33;38.77;;;;;;;;;;5111788;28;20320;-77
2023/03/01 06:38:35;;;;;;;25.73;19.43;;;;;;;;;;5108906;28;20222;-78
2023/03/01 06:41:02;;;;;;;28.03;20.50;;;;;;;;;;5111228;28;20285;-77
2023/03/01 06:43:29;;;;;;;44.17;32.23;;;;;;;;;;5111936;28;20198;-78
2023/03/01 06:45:58;;;;;;;26.60;19.17;;;;;;;;;;5111365;28;20269;-76
2023/03/01 06:48:26;;;;;;;53.93;38.37;;;;;;;;;;5111188;27;20633;-78
2023/03/01 06:50:53;;;;;;;22.10;15.70;;;;;;;;;;5104845;28;20246;-76
2023/03/01 06:53:20;;;;;;;24.30;16.13;;;;;;;;;;5110358;28;20281;-76
2023/03/01 06:55:47;;;;;;;30.23;21.63;;;;;;;;;;5102231;28;20226;-77
2023/03/01 06:58:14;;;;;;;69.33;45.97;;;;;;;;;;5111606;28;20190;-78
2023/03/01 07:00:43;;;;;;;139.20;68.33;;;;;;;;;;5098924;28;20230;-77
2023/03/01 07:03:11;;;;;;;115.63;58.07;;;;;;;;;;5104679;28;20235;-76
2023/03/01 07:05:39;;;;;;;136.03;72.10;;;;;;;;;;5112608;28;20221;-76
2023/03/01 07:08:06;;;;;;;46.33;30.43;;;;;;;;;;5111466;28;20233;-77
2023/03/01 07:10:33;;;;;;;69.73;38.40;;;;;;;;;;5111446;28;20232;-78
2023/03/01 07:13:01;;;;;;;152.83;79.20;;;;;;;;;;5111457;28;20292;-76
2023/03/01 07:15:29;;;;;;;106.93;63.47;;;;;;;;;;5110999;28;20959;-76
2023/03/01 07:17:57;;;;;;;30.37;21.90;;;;;;;;;;5111665;28;20290;-76
2023/03/01 07:20:26;;;;;;;37.47;28.10;;;;;;;;;;5111435;28;20231;-76
2023/03/01 07:22:53;;;;;;;25.27;19.27;;;;;;;;;;5111519;28;20217;-76
2023/03/01 07:25:20;;;;;;;21.63;15.17;;;;;;;;;;5111069;28;20261;-77
2023/03/01 07:27:51;;;;;;;18.40;14.00;;;;;;;;;;5113009;28;20221;-77
2023/03/01 07:30:18;;;;;;;44.43;31.77;;;;;;;;;;5111135;28;20197;-76
2023/03/01 07:32:46;;;;;;;25.23;20.73;;;;;;;;;;5111405;28;20315;-78
2023/03/01 07:35:14;;;;;;;30.40;22.37;;;;;;;;;;5111465;28;20321;-77
2023/03/01 07:37:43;;;;;;;38.97;27.97;;;;;;;;;;5111622;28;20242;-77
2023/03/01 07:40:11;;;;;;;30.97;22.03;;;;;;;;;;5110894;28;20199;-77
2023/03/01 07:42:38;;;;;;;25.93;19.23;;;;;;;;;;5095964;28;20221;-77
2023/03/01 07:45:07;;;;;;;23.20;17.17;;;;;;;;;;5091361;28;20325;-77
2023/03/01 07:47:34;;;;;;;26.70;22.27;;;;;;;;;;5091068;28;20268;-76
2023/03/01 07:50:02;;;;;;;22.67;19.53;;;;;;;;;;5107005;28;20731;-77
2023/03/01 07:52:30;;;;;;;29.93;26.90;;;;;;;;;;5116654;28;20227;-78
2023/03/01 07:54:59;;;;;;;23.73;21.43;;;;;;;;;;5113787;28;20275;-79
2023/03/01 07:57:26;;;;;;;19.73;15.17;;;;;;;;;;5111334;28;20224;-77
2023/03/01 07:59:53;;;;;;;15.57;13.97;;;;;;;;;;5111585;28;20193;-77
2023/03/01 08:02:21;;;;;;;16.00;13.03;;;;;;;;;;5110410;28;20221;-77
2023/03/01 08:04:48;;;;;;;16.63;13.13;;;;;;;;;;5111102;28;20685;-78
2023/03/01 08:07:15;;;;;;;14.50;12.43;;;;;;;;;;5111110;28;20209;-78
2023/03/01 08:09:42;;;;;;;13.90;12.40;;;;;;;;;;5112288;28;20226;-76
2023/03/01 08:12:11;;;;;;;14.87;13.27;;;;;;;;;;5114448;28;20746;-78
2023/03/01 08:14:38;;;;;;;16.37;13.40;;;;;;;;;;5115071;28;20225;-78
2023/03/01 08:17:05;;;;;;;14.23;12.63;;;;;;;;;;5114511;28;20236;-77
2023/03/01 08:19:34;;;;;;;14.40;11.97;;;;;;;;;;5114673;28;20260;-79
2023/03/01 08:22:02;;;;;;;13.80;12.33;;;;;;;;;;5114334;28;20682;-78
2023/03/01 08:24:30;;;;;;;15.20;13.53;;;;;;;;;;5113936;28;20190;-77
2023/03/01 08:26:57;;;;;;;14.93;13.33;;;;;;;;;;5114642;27;20290;-78
2023/03/01 08:29:26;;;;;;;18.17;15.77;;;;;;;;;;5114358;28;20217;-78
2023/03/01 08:31:53;;;;;;;16.83;14.63;;;;;;;;;;5114801;28;20289;-77
2023/03/01 08:34:20;;;;;;;16.47;13.27;;;;;;;;;;5114468;28;20194;-78
2023/03/01 08:36:47;;;;;;;13.80;12.33;;;;;;;;;;5114126;28;20316;-77
2023/03/01 08:39:15;;;;;;;13.20;11.80;;;;;;;;;;5114291;28;20285;-78
2023/03/01 08:41:43;;;;;;;13.80;12.40;;;;;;;;;;5114329;28;20297;-78
2023/03/01 08:44:11;;;;;;;13.67;12.27;;;;;;;;;;5113733;28;20293;-79
2023/03/01 08:46:40;;;;;;;14.83;13.37;;;;;;;;;;5114195;28;20689;-77
2023/03/01 08:49:08;;;;;;;28.80;22.13;;;;;;;;;;5113851;28;20661;-77
2023/03/01 08:51:36;;;;;;;17.07;15.03;;;;;;;;;;5113718;28;20674;-77
2023/03/01 08:54:03;;;;;;;16.40;14.70;;;;;;;;;;5113998;28;20217;-77
2023/03/01 08:56:31;;;;;;;23.17;19.10;;;;;;;;;;5113711;28;20256;-79
2023/03/01 08:58:58;;;;;;;15.33;13.50;;;;;;;;;;5114133;28;20645;-78
2023/03/01 09:01:25;;;;;;;15.27;13.67;;;;;;;;;;5113771;28;20351;-78
2023/03/01 09:03:54;;;;;;;14.87;13.27;;;;;;;;;;5113756;28;20706;-79
2023/03/01 09:06:21;;;;;;;23.40;17.43;;;;;;;;;;5113474;28;20297;-79
2023/03/01 09:08:49;;;;;;;15.30;13.80;;;;;;;;;;5114106;28;20200;-79
2023/03/01 09:11:18;;;;;;;14.47;12.97;;;;;;;;;;5113354;28;20310;-78
2023/03/01 09:13:45;;;;;;;14.43;12.93;;;;;;;;;;5093575;28;20273;-78
2023/03/01 09:16:13;;;;;;;16.10;14.40;;;;;;;;;;5092832;28;20661;-79
2023/03/01 09:18:41;;;;;;;14.47;12.97;;;;;;;;;;5092758;28;20198;-79
2023/03/01 09:21:10;;;;;;;16.67;13.47;;;;;;;;;;5092720;28;20202;-77
2023/03/01 09:23:38;;;;;;;14.97;13.40;;;;;;;;;;5092719;28;20226;-78
2023/03/01 09:26:06;;;;;;;56.20;40.23;;;;;;;;;;5093020;28;20728;-78
2023/03/01 09:28:33;;;;;;;80.23;51.07;;;;;;;;;;5092999;28;20195;-78
2023/03/01 09:31:00;;;;;;;97.63;63.27;;;;;;;;;;5092696;28;20285;-78
2023/03/01 09:33:27;;;;;;;41.03;29.80;;;;;;;;;;5092881;28;20236;-78
2023/03/01 09:35:57;;;;;;;43.07;33.73;;;;;;;;;;5092413;28;20669;-78
2023/03/01 09:38:26;;;;;;;46.17;32.90;;;;;;;;;;5092951;28;20229;-78
2023/03/01 09:40:54;;;;;;;69.77;49.40;;;;;;;;;;5092650;28;20214;-77
2023/03/01 09:43:25;;;;;;;24.77;19.40;;;;;;;;;;5092935;28;20203;-77
2023/03/01 09:45:54;;;;;;;40.10;28.97;;;;;;;;;;5092183;28;20261;-78
2023/03/01 09:48:23;;;;;;;36.37;29.93;;;;;;;;;;5092695;28;20245;-78
2023/03/01 09:50:50;;;;;;;18.20;16.30;;;;;;;;;;5092403;28;20217;-78
2023/03/01 09:53:19;;;;;;;18.03;14.83;;;;;;;;;;5092411;28;20234;-77
2023/03/01 09:55:51;;;;;;;39.27;35.37;;;;;;;;;;5091962;28;20272;-78
2023/03/01 09:58:29;;;;;;;27.77;24.80;;;;;;;;;;5107779;28;20225;-78
2023/03/01 10:00:57;;;;;;;18.87;14.63;;;;;;;;;;5112882;28;20391;-77
2023/03/01 10:03:27;;;;;;;17.60;15.23;;;;;;;;;;5112376;28;20198;-77
2023/03/01 10:05:58;;;;;;;19.43;17.20;;;;;;;;;;5112026;28;20292;-77
2023/03/01 10:08:30;;;;;;;20.87;17.93;;;;;;;;;;5112681;28;20236;-79
2023/03/01 10:10:59;;;;;;;20.10;16.30;;;;;;;;;;5112316;28;20204;-78
2023/03/01 10:13:29;;;;;;;21.40;18.83;;;;;;;;;;5112243;28;20290;-79
2023/03/01 10:15:58;;;;;;;21.63;16.33;;;;;;;;;;5112281;28;20594;-78
2023/03/01 10:18:27;;;;;;;19.90;16.57;;;;;;;;;;5111866;28;20297;-79
2023/03/01 10:20:55;;;;;;;19.40;16.27;;;;;;;;;;5112291;28;20208;-78
2023/03/01 10:23:25;;;;;;;18.83;15.37;;;;;;;;;;5112577;28;20289;-78
2023/03/01 10:26:07;;;;;;;19.07;16.07;;;;;;;;;;5111884;28;20204;-77
2023/03/01 10:28:44;;;;;;;18.90;15.97;;;;;;;;;;5111931;28;20232;-79
2023/03/01 10:31:13;;;;;;;22.20;17.93;;;;;;;;;;5112137;28;20227;-78
2023/03/01 10:33:42;;;;;;;18.30;14.83;;;;;;;;;;5111748;28;20214;-79
2023/03/01 10:36:09;;;;;;;17.10;14.13;;;;;;;;;;5111964;28;20275;-79
2023/03/01 10:38:49;;;;;;;17.50;14.47;;;;;;;;;;5111715;28;20724;-79
2023/03/01 10:41:18;;;;;;;22.07;17.43;;;;;;;;;;5111922;28;20252;-77
2023/03/01 10:43:46;;;;;;;18.67;14.97;;;;;;;;;;5111515;28;20643;-79
2023/03/01 10:46:24;;;;;;;18.23;15.37;;;;;;;;;;5111648;28;20294;-78
2023/03/01 10:49:06;;;;;;;16.40;14.63;;;;;;;;;;5111569;28;20271;-78
2023/03/01 10:51:33;;;;;;;15.77;13.33;;;;;;;;;;5111902;28;20224;-78
2023/03/01 10:54:00;;;;;;;17.70;13.97;;;;;;;;;;5112172;28;20289;-79
2023/03/01 10:56:33;;;;;;;16.17;13.47;;;;;;;;;;5111438;28;20241;-77
2023/03/01 10:59:01;;;;;;;16.23;13.47;;;;;;;;;;5091482;28;20198;-77
2023/03/01 11:01:29;;;;;;;15.60;13.33;;;;;;;;;;5092667;28;20293;-77
2023/03/01 11:04:12;;;;;;;14.87;13.27;;;;;;;;;;5111662;28;20730;-78
2023/03/01 11:06:40;;;;;;;15.90;13.10;;;;;;;;;;5111673;28;20229;-77
2023/03/01 11:09:15;;;;;;;15.70;13.03;;;;;;;;;;5112050;28;20280;-79
2023/03/01 11:11:43;;;;;;;16.13;13.67;;;;;;;;;;5111688;28;20197;-78
2023/03/01 11:14:17;;;;;;;17.13;13.80;;;;;;;;;;5111785;28;20224;-78
2023/03/01 11:16:46;;;;;;;15.90;13.43;;;;;;;;;;5111488;28;20229;-79
2023/03/01 11:19:18;;;;;;;15.63;13.93;;;;;;;;;;5111532;28;20589;-78
2023/03/01 11:21:48;;;;;;;15.93;13.53;;;;;;;;;;5111754;28;20228;-78
2023/03/01 11:24:17;;;;;;;14.73;13.13;;;;;;;;;;5111541;28;20217;-79
2023/03/01 11:26:47;;;;;;;17.50;14.17;;;;;;;;;;5111591;28;20357;-78
2023/03/01 11:29:18;;;;;;;15.07;13.47;;;;;;;;;;5111687;28;20236;-79
2023/03/01 11:31:47;;;;;;;15.67;13.53;;;;;;;;;;5111217;28;20225;-78
2023/03/01 11:34:16;;;;;;;14.93;13.40;;;;;;;;;;5111541;28;20293;-78
2023/03/01 11:36:46;;;;;;;15.60;13.53;;;;;;;;;;5106821;28;20320;-79
2023/03/01 11:39:19;;;;;;;133.93;60.97;;;;;;;;;;5110927;28;20221;-80
2023/03/01 11:41:51;;;;;;;28.20;23.43;;;;;;;;;;5110723;28;20198;-77
2023/03/01 11:44:21;;;;;;;18.17;16.30;;;;;;;;;;5112192;28;20229;-78
2023/03/01 11:46:53;;;;;;;16.97;14.57;;;;;;;;;;5111954;28;20269;-79
2023/03/01 11:49:36;;;;;;;18.37;16.47;;;;;;;;;;5120415;27;20276;-79
2023/03/01 11:52:06;;;;;;;17.70;15.40;;;;;;;;;;5111317;27;20258;-78
2023/03/01 11:54:40;;;;;;;16.27;14.57;;;;;;;;;;5122510;27;20821;-79
2023/03/01 11:57:15;;;;;;;17.97;15.80;;;;;;;;;;5117788;27;20221;-79
2023/03/01 12:00:04;;;;;;;16.60;14.80;;;;;;;;;;5111996;28;20281;-78
2023/03/01 12:02:41;;;;;;;16.07;14.37;;;;;;;;;;5112120;27;20209;-81
2023/03/01 12:05:25;;;;;;;17.33;14.80;;;;;;;;;;5113395;28;20231;-78
2023/03/01 12:07:56;;;;;;;17.77;15.87;;;;;;;;;;5104223;28;20225;-80
2023/03/01 12:10:25;;;;;;;16.43;14.57;;;;;;;;;;5114671;28;20217;-80
2023/03/01 12:13:07;;;;;;;19.20;15.17;;;;;;;;;;5111083;28;20225;-79
2023/03/01 12:15:52;;;;;;;18.67;15.73;;;;;;;;;;5087700;28;20218;-79
2023/03/01 12:18:38;;;;;;;16.93;14.83;;;;;;;;;;5093846;28;20286;-79
2023/03/01 12:21:10;;;;;;;18.00;16.10;;;;;;;;;;5094155;28;20237;-81
2023/03/01 12:23:47;;;;;;;17.20;15.40;;;;;;;;;;5093555;28;20231;-79
2023/03/01 12:26:19;;;;;;;17.33;15.53;;;;;;;;;;5107176;28;20239;-80
2023/03/01 12:28:53;;;;;;;16.70;14.93;;;;;;;;;;5094269;28;20217;-79
2023/03/01 12:31:34;;;;;;;22.30;19.80;;;;;;;;;;5094174;28;20191;-79
2023/03/01 12:34:09;;;;;;;15.53;13.93;;;;;;;;;;5105711;27;20615;-80
2023/03/01 12:36:43;;;;;;;18.80;16.47;;;;;;;;;;5093906;28;20305;-80
2023/03/01 12:39:21;;;;;;;20.30;18.17;;;;;;;;;;5092856;28;20292;-79
2023/03/01 12:41:49;;;;;;;16.73;14.93;;;;;;;;;;5097408;28;20292;-77
2023/03/01 12:44:32;;;;;;;15.03;13.50;;;;;;;;;;5124043;27;20282;-79
2023/03/01 12:47:05;;;;;;;15.33;13.50;;;;;;;;;;5110264;27;20289;-79
2023/03/01 12:49:36;;;;;;;17.43;14.73;;;;;;;;;;5110592;28;20194;-79
2023/03/01 12:52:10;;;;;;;20.47;14.87;;;;;;;;;;5112118;28;20198;-79
2023/03/01 12:54:38;;;;;;;20.63;17.23;;;;;;;;;;5110658;27;20686;-79
2023/03/01 12:57:18;;;;;;;17.00;14.93;;;;;;;;;;5113372;28;20308;-78
2023/03/01 12:59:51;;;;;;;17.17;14.43;;;;;;;;;;5112106;28;20228;-78
2023/03/01 13:02:23;;;;;;;16.90;14.37;;;;;;;;;;5110652;28;20750;-77
2023/03/01 13:05:06;;;;;;;18.23;14.93;;;;;;;;;;5111245;27;20228;-79
2023/03/01 13:07:37;;;;;;;17.43;15.53;;;;;;;;;;5109155;28;20289;-79
2023/03/01 13:10:13;;;;;;;18.60;16.23;;;;;;;;;;5113041;28;20233;-78
2023/03/01 13:12:44;;;;;;;18.50;16.50;;;;;;;;;;5105567;28;20236;-78
2023/03/01 13:15:26;;;;;;;16.13;14.43;;;;;;;;;;5112883;28;20193;-79
2023/03/01 13:17:54;;;;;;;17.33;15.30;;;;;;;;;;5111621;27;20785;-79
2023/03/01 13:20:25;;;;;;;16.50;14.57;;;;;;;;;;5113731;27;20233;-78
2023/03/01 13:23:02;;;;;;;17.80;15.83;;;;;;;;;;5110773;27;20623;-78
2023/03/01 13:25:29;;;;;;;17.33;15.47;;;;;;;;;;5110193;27;20197;-78
2023/03/01 13:28:19;;;;;;;15.67;13.70;;;;;;;;;;5109513;28;20225;-78
2023/03/01 13:30:49;;;;;;;14.07;12.57;;;;;;;;;;5109710;28;20225;-79
2023/03/01 13:33:41;;;;;;;14.23;12.73;;;;;;;;;;5112984;28;20237;-79
2023/03/01 13:36:10;;;;;;;13.73;12.23;;;;;;;;;;5093915;27;20238;-79
2023/03/01 13:38:38;;;;;;;14.30;12.87;;;;;;;;;;5112611;27;20266;-79
2023/03/01 13:41:06;;;;;;;14.30;12.67;;;;;;;;;;5120350;27;20727;-79
2023/03/01 13:43:35;;;;;;;13.73;12.27;;;;;;;;;;5116959;27;20280;-79
2023/03/01 13:46:04;;;;;;;13.33;11.93;;;;;;;;;;5116544;27;20319;-79
2023/03/01 13:48:32;;;;;;;14.10;12.60;;;;;;;;;;5116642;27;20284;-80
2023/03/01 13:51:01;;;;;;;12.80;11.47;;;;;;;;;;5118703;27;20189;-81
2023/03/01 13:53:31;;;;;;;13.20;11.80;;;;;;;;;;5115679;27;20216;-80
2023/03/01 13:56:00;;;;;;;13.33;11.83;;;;;;;;;;5122098;27;20287;-80
2023/03/01 13:58:28;;;;;;;15.07;11.77;;;;;;;;;;5113444;27;20245;-80
2023/03/01 14:00:59;;;;;;;12.10;10.37;;;;;;;;;;5122428;27;20246;-79
2023/03/01 14:03:29;;;;;;;14.00;12.33;;;;;;;;;;5120747;27;20285;-80
2023/03/01 14:06:06;;;;;;;15.70;13.13;;;;;;;;;;5122023;27;20243;-80
2023/03/01 14:08:33;;;;;;;13.87;12.37;;;;;;;;;;5119477;27;20284;-81
2023/03/01 14:11:06;;;;;;;15.37;13.00;;;;;;;;;;5122629;27;20273;-81
2023/03/01 14:13:41;;;;;;;14.03;12.53;;;;;;;;;;5120433;27;20673;-81
2023/03/01 14:16:16;;;;;;;13.40;11.93;;;;;;;;;;5118334;27;20219;-80
2023/03/01 14:18:51;;;;;;;14.73;12.27;;;;;;;;;;5120475;27;20249;-78
2023/03/01 14:21:19;;;;;;;13.00;11.17;;;;;;;;;;5118809;27;20194;-79
2023/03/01 14:23:47;;;;;;;15.60;11.47;;;;;;;;;;5111617;28;20285;-79
2023/03/01 14:26:14;;;;;;;12.93;11.37;;;;;;;;;;5121626;27;20190;-81
2023/03/01 14:28:44;;;;;;;14.00;11.60;;;;;;;;;;5124722;27;20309;-80
2023/03/01 14:31:30;;;;;;;12.20;10.83;;;;;;;;;;5111818;28;20825;-80